Portada
METAR-TAF:

METAR-TAF

Aeroports :

Townsville, Austràlia

latitud: 19-15S, longitud: 146-45E, altitud: 6 m

Observació

L'informe es va fer fa 29 minuts, a les 16:30 UTC
Vent calma
Temperatura 20°C
Humitat 88%
Pressió 1014 hPa
Visibilitat 10 km o més

METAR: YBTL 191630Z AUTO 00000KT 9999 // NCD 20/18 Q1014

Hora: 02:59 (16:59 UTC)

Pronòstic

L'informe es va fer fa 5 hores i 52 minuts, a les 11:07 UTC
Pronòstic vàlid del 19 a les 12 UTC al 20 a les 12 UTC
Vent 6 kt del Sud/Sud-Est
Visibilitat 10 km o més
Escasses núvols a una alçada de 2500 ft
A partir de les 20 a les 0100 UTC
Vent 15 kt del Est
Visibilitat 10 km o més
Escasses núvols a una alçada de 3000 ft
A partir de les 20 a les 0900 UTC
Vent 7 kt del Sud-Est
Visibilitat 10 km o més
Escasses núvols a una alçada de 2500 ft

TAF: YBTL 191107Z 1912/2012 15006KT 9999 FEW025 FM200100 08015KT 9999 FEW030 FM200900 14007KT 9999 FEW025

Observacions i pronòstics meteorològics de més de 4000 aeroports (METAR i TAF).

Les estacions disponibles són els punts grocs i vermells al mapa.

Posi el ratolí al punt desitjat per veure el nom de l'estació.

Feu clic per veure les observacions i els pronòstics meteorològics.

Per canviar el mapa: feu clic els botons verds amb una creu de color negre per apropar; al botó verd amb un guió per allunyar la imatge; o en les fletxes verdes per a mapes adjacents.


METAR-TAF: